Nearby METAR Reports

 

YMEN - Melbourne/Essend, Australia
Distance from station: WNW 96km
Updated: 25/02/2018 11:00
Overcast
Overcast
 Wind from SSE
Wind: SSE 31 km/h
Temperature: 16°C
Dew Point: 5°C
Humidity: 48%
Barometer: 1013 hPa
Clouds: Overcast
Visibility: 10 km
Cloud details: Mostly cloudy 1250 m
Overcast 1433 m
2018/02/25 00:00 YMEN 250000Z AUTO 16017KT 9999 // BKN041 OVC047 16/05 Q1013
YMML - Melbourne Intl A, Australia
Distance from station: WNW 106km
Updated: 25/02/2018 11:00
Mostly cloudy
Mostly cloudy
 Wind from S
Wind: S 31 km/h
Temperature: 16°C
Dew Point: 6°C
Humidity: 52%
Barometer: 1013 hPa
Clouds: Mostly cloudy
Visibility: 10 km
Cloud details: Mostly cloudy 1158 m
Mostly cloudy 1372 m
2018/02/25 00:00 YMML 250000Z 17017KT 9999 BKN038 BKN045 16/06 Q1013
YMAV - Avalon Airport, Australia
Distance from station: W 121km
Updated: 25/02/2018 11:00
Overcast
Overcast
 Wind from SSE
Wind: SSE 33 km/h
Temperature: 18°C
Dew Point: 7°C
Humidity: 49%
Barometer: 1013 hPa
Clouds: Overcast
Visibility: 10 km
Cloud details: Mostly cloudy 1158 m
Overcast 1433 m
2018/02/25 00:00 YMAV 250000Z AUTO 16018KT 9999 // BKN038 OVC047 18/07 Q1013
 
YWGT - Wangaratta Arp, Australia
Distance from station: N 196km
Updated: 25/02/2018 11:00
Overcast
Overcast
 Wind from SE
Wind: SE 15 km/h
Temperature: 22°C
Dew Point: 11°C
Humidity: 50%
Barometer: 1005 hPa
Clouds: Overcast
Visibility: 10 km
Cloud details: Mostly cloudy 1006 m
Overcast 1372 m
2018/02/25 00:00 YWGT 250000Z AUTO 14008KT 9999 // BKN033 OVC045 22/11 Q1005
YMAY - Albury Airport, Australia
Distance from station: NNE 250km
Updated: 25/02/2018 11:00
Overcast
Overcast
 Wind from SSE
Wind: SSE 17 km/h
Temperature: 21°C
Dew Point: 13°C
Humidity: 60%
Barometer: 1006 hPa
Clouds: Overcast
Visibility: 10 km
Cloud details: Overcast 975 m
2018/02/25 00:00 YMAY 250000Z AUTO 15009KT 9999 // OVC032 21/13 Q1006
YCOM - Cooma Snowy Mtns, Australia
Distance from station: NE 343km
Updated: 25/02/2018 11:00
Overcast
Overcast
 Wind from S
Wind: S 22 km/h
Temperature: 11°C
Dew Point: 11°C
Humidity: 100%
Barometer: 1012 hPa
Clouds: Overcast
Visibility: 7 km
Cloud details: Overcast 122 m
2018/02/25 00:00 YCOM 250000Z AUTO 19012KT 7000 // OVC004 11/11 Q1012
 
YSWG - Wagga Wagga(Cv/M, Australia
Distance from station: NNE 364km
Updated: 25/02/2018 11:00
Overcast
Overcast
 Wind from WNW
Wind: WNW 13 km/h
Temperature: 21°C
Dew Point: 14°C
Humidity: 64%
Barometer: 1006 hPa
Clouds: Overcast
Visibility: 10 km
Cloud details: Partly cloudy 2195 m
Overcast 3810 m
2018/02/25 00:00 YSWG 250000Z AUTO 29007KT 9999 // SCT072 OVC125 21/14 Q1006
YMER - Merimbula Arpt, Australia
Distance from station: ENE 382km
Updated: 25/02/2018 11:00
Overcast
Overcast
 Wind from WSW
Wind: WSW 13 km/h
Temperature: 18°C
Dew Point: 12°C
Humidity: 68%
Barometer: 1010 hPa
Clouds: Overcast
Visibility: 10 km
Cloud details: Overcast 2316 m
2018/02/25 00:00 YMER 250000Z AUTO 24007KT 9999 // OVC076 18/12 Q1010
YNAR - Narrandera, Australia
Distance from station: N 388km
Updated: 25/02/2018 10:00

 Wind from W
Wind: W 17 km/h
Temperature: 20°C
Dew Point: 11°C
Humidity: 56%
Barometer: 1006 hPa
2018/02/24 23:00 YNAR 242300Z AUTO 26009KT //// // ////// 20/11 Q1006
 
YMLT - Launceston Airpo, Australia
Distance from station: SSE 392km
Updated: 25/02/2018 10:30
Clear
Clear
 Wind from SSE
Wind: SSE 30 km/h
Temperature: 15°C
Dew Point: 3°C
Humidity: 45%
Barometer: 1014 hPa
Clouds: Clear
Visibility: 10 km
2018/02/24 23:30 YMLT 242330Z AUTO 15016KT 9999 // NCD 15/03 Q1014 RF00.0/000.0
YGTH - Griffith Arpt, Australia
Distance from station: N 434km
Updated: 25/02/2018 10:00
Clear
Clear
 Wind from WSW
Wind: WSW 19 km/h
Temperature: 19°C
Dew Point: 11°C
Humidity: 60%
Barometer: 1007 hPa
Clouds: Clear
Visibility: 10 km
2018/02/24 23:00 YGTH 242300Z AUTO 25010KT 9999 // NCD 19/11 Q1007
YSCB - Canberra (civ/Mi, Australia
Distance from station: NE 434km
Updated: 25/02/2018 11:00
Rain showers, Overcast
Rain showers, Overcast
 Wind from SSE
Wind: SSE 19 km/h
Temperature: 15°C
Dew Point: 15°C
Humidity: 100%
Barometer: 1010 hPa
Summary: Rain Showers
Clouds: Overcast
Visibility: 6 km
Cloud details: Few Clouds 244 m
Partly cloudy 457 m
Overcast 671 m
2018/02/25 00:00 YSCB 250000Z 15010KT 6000 SHRA FEW008 SCT015 OVC022 15/15 Q1010 FM0030 13010KT 9999 -SHRA SCT006 BKN022 INTER 0030/0130 4000 SHRA SCT006 BKN015
 
YMTG - Mount Gambier, Australia
Distance from station: W 447km
Updated: 25/02/2018 10:00
Overcast
Overcast
 Wind from S
Wind: S 30 km/h
Temperature: 16°C
Dew Point: 8°C
Humidity: 59%
Barometer: 1016 hPa
Clouds: Overcast
Visibility: 10 km
Cloud details: Overcast 1402 m
2018/02/24 23:00 YMTG 242300Z AUTO 17016KT 9999 // OVC046 16/08 Q1016
YMHB - Hobart/Tasmania, Australia
Distance from station: SSE 538km
Updated: 25/02/2018 10:30
Mostly cloudy
Mostly cloudy
 Wind from SW
Wind: SW 26 km/h
Temperature: 14°C
Dew Point: 3°C
Humidity: 48%
Barometer: 1015 hPa
Clouds: Mostly cloudy
Visibility: 10 km
Cloud details: Few Clouds 1158 m
Mostly cloudy 1494 m
2018/02/24 23:30 YMHB 242330Z 23014KT 9999 FEW038 BKN049 14/03 Q1015 RF00.0/000.0
YSNW - Nowra (aus-Navy), Australia
Distance from station: NE 547km
Updated: 25/02/2018 11:00
Overcast
Overcast
 Wind from S
Wind: S 24 km/h
Temperature: 16°C
Dew Point: 16°C
Humidity: 100%
Barometer: 1009 hPa
Clouds: Overcast
Visibility: 5 km
Cloud details: Mostly cloudy 244 m
Mostly cloudy 1524 m
Overcast 2042 m
2018/02/25 00:00 YSNW 250000Z AUTO 17013KT 5000 // BKN008 BKN050 OVC067 16/16 Q1009
 
YMIA - Mildura Arpt, Australia
Distance from station: NW 551km
Updated: 25/02/2018 11:00
Clear
Clear
 Wind from S
Wind: S 22 km/h
Temperature: 20°C
Dew Point: 8°C
Humidity: 46%
Barometer: 1012 hPa
Clouds: Clear
Visibility: 10 km
2018/02/25 00:00 YMIA 250000Z AUTO 17012KT 9999 // NCD 20/08 Q1012
YSSY - Sydney Intl Airp, Australia
Distance from station: NE 667km
Updated: 25/02/2018 11:00
Light rain, Showers, Overcast
Light rain, Showers, Overcast
 Wind from S
Wind: S 39 km/h
Temperature: 21°C
Dew Point: 19°C
Humidity: 88%
Barometer: 1007 hPa
Summary: Light rain, Showers
Clouds: Overcast
Visibility: 10 km
Cloud details: Mostly cloudy 244 m
Mostly cloudy 366 m
Overcast 701 m
2018/02/25 00:00 YSSY 250000Z 18021KT 9999 -SHRA BKN008 BKN012 OVC023 21/19 Q1007
YSRI - Richmond (aus-Af, Australia
Distance from station: NE 671km
Updated: 25/02/2018 10:30
Overcast
Overcast
 Wind from SSE
Wind: SSE 22 km/h
Temperature: 23°C
Dew Point: 19°C
Humidity: 78%
Barometer: 1007 hPa
Clouds: Overcast
Cloud details: Overcast 549 m
2018/02/24 23:30 YSRI 242330Z AUTO 15012KT //// // OVC018 23/19 Q1007 RF00.0/000.0 PRESENT WEATHER SENSOR US
 
YSDU - Dubbo, Australia
Distance from station: NNE 704km
Updated: 25/02/2018 10:30
Clear
Clear
 Wind from NNW
Wind: NNW 19 km/h
Temperature: 29°C
Heat Index: 31°C
Dew Point: 20°C
Humidity: 58%
Barometer: 1006 hPa
Clouds: Clear
Visibility: 10 km
2018/02/24 23:30 YSDU 242330Z AUTO 33010KT 300V360 9999 // NCD 29/20 Q1006 RF00.0/000.0
YMDG - Mudgee Arpt, Australia
Distance from station: NNE 708km
Updated: 25/02/2018 11:00
Mostly cloudy
Mostly cloudy
 Wind from N
Wind: N 15 km/h
Temperature: 30°C
Heat Index: 32°C
Dew Point: 20°C
Humidity: 55%
Barometer: 1007 hPa
Clouds: Mostly cloudy
Visibility: 10 km
Cloud details: Mostly cloudy 1036 m
Mostly cloudy 1189 m
2018/02/25 00:00 YMDG 250000Z AUTO 36008KT 9999 // BKN034 BKN039 30/20 Q1007